Long Prairie, MN (56347)

07:43 CDT le 29 juillet 2014 (GMT -0500)
Long Prairie (K14Y) Alt. 1332 ft | 45.90 °N, 94.87 °W | Change Station

Current weather conditions updated 6 minutes ago

Clear
Ciel dégagé
59 ° F
Paraît 59 ° F
N
6
Vent Variable Vent de ONO

Aujourd’hui il est prévu de faire plus chaud qu’hier.

Aujourd'hui
Haut(e) -- | Bas -- ° F
--% Risque de précip.
Hier
Haut(e) -- | Bas -- ° F
Precip. -- pouce
5:58 AM 8:52 PM
Lune montante, 6% visible
Pression 30.18 pouce
Visibilité 10.0 Miles terrestres
Nuages Ciel dégagé
Point de rosée 54 ° F
Humidité 82%
Précipitations 0.00 pouce
Profondeur de la couche neigeuse Non disponible.
UV 1 sur 12
Pollen 6.60 sur 12
Qualité de l'air Non disponible.
Flu Activity Non disponible.
METAR K14Y 291237Z AUTO 29005KT 10SM CLR 15/12 A3018 RMK AO2

More Conditions Fewer Conditions

Pression 30.18 pouce
Visibilité 10.0 Miles terrestres
Nuages Ciel dégagé
Point de rosée 54 ° F
Humidité 82%
Précipitations 0.00 pouce
Profondeur de la couche neigeuse Non disponible.
UV 1 sur 12
Pollen 6.60 sur 12
Qualité de l'air Non disponible.
Flu Activity Non disponible.
METAR K14Y 291237Z AUTO 29005KT 10SM CLR 15/12 A3018 RMK AO2

More Conditions Fewer Conditions

10-Day Weather Forecast

Almanac

Astronomie

Jul. 29, 2014 Lever Coucher
Temps réel 05:58 CDT 20:52 CDT
Crépuscule civil 05:23 CDT 21:27 CDT
Crépuscule nautique 04:38 CDT 22:11 CDT
Crépuscule astronomique 03:45 CDT 23:04 CDT
Lune 08:47 CDT 21:52 CDT
Durée de lumière visible 16h 03m
Longueur du jour
14h 54m
Tomorrow will be 2m 25s shorter.
Lune montante, 6% of the Moon is Illuminated
Aujourd'hui
Lune montante
août 3
Premier quartier
août 10
Pleine lune
août 17
Dernier quartier
août 25
Nouveau

Extrêmes aujourd'hui

State Highs State Lows

Community

WunderPhotos

Upload Photos

1,738,705 Photos téléchargées !

Nearby

Épaisseur de neige

Station Depth Altitude
Pas de nouvelles chutes de neige

Activité sismique

Ville Distance Mag. Time & Date
No recent earthquake activity has been reported nearby.
Minimum magnitude displayed is 2.5.

Températures des eaux côtières

Lieu Température
Aucun rapport de station

Stations météo à proximité

Emplacement de la station Température Point de rosée Humidité Vent Precip. Alt. Mise à jour Type
Lake Beauty, Long Prairie, MN 60.5 ° F 58 ° F 90% ONO  à  0.0 mph 0.00 pouce / hr 1219 ft 7:40 AM CDT Normal
Grey Eagle, MN 57.4 ° F 55 ° F 92% NNE  à  0.0 mph - / hr 1214 ft 7:31 AM CDT Normal
Sauk Centre, Sauk Centre, MN 59.7 ° F 57 ° F 91% Nord  à  0.0 mph 0.00 pouce / hr 1253 ft 7:43 AM CDT Rapid Fire (temps réel)
Swanville, Swanville, MN 56.9 ° F 55 ° F 93% ONO  à  2.0 mph 0.00 pouce / hr 1158 ft 7:43 AM CDT Rapid Fire (temps réel)
Riverwood Court, Randall, MN 56.3 ° F 54 ° F 91% Nord  à  0.0 mph 0.00 pouce / hr 1173 ft 7:43 AM CDT Rapid Fire (temps réel)

Show More Stations Show Fewer Stations